sensor_id;sensor_type;location;lat;lon;timestamp;P1;durP1;ratioP1;P2;durP2;ratioP2
48871;SDS011;36154;51.674;7.824;2023-06-22T00:01:15;3.78;;;3.42;;
48871;SDS011;36154;51.674;7.824;2023-06-22T00:03:41;3.88;;;3.47;;
48871;SDS011;36154;51.674;7.824;2023-06-22T00:06:06;3.13;;;2.90;;
48871;SDS011;36154;51.674;7.824;2023-06-22T00:08:33;3.00;;;2.80;;
48871;SDS011;36154;51.674;7.824;2023-06-22T00:10:59;4.28;;;2.80;;
48871;SDS011;36154;51.674;7.824;2023-06-22T00:13:24;5.47;;;3.50;;
48871;SDS011;36154;51.674;7.824;2023-06-22T00:15:49;3.08;;;2.80;;
48871;SDS011;36154;51.674;7.824;2023-06-22T00:18:14;3.15;;;2.72;;
48871;SDS011;36154;51.674;7.824;2023-06-22T00:20:41;3.13;;;2.92;;
48871;SDS011;36154;51.674;7.824;2023-06-22T00:23:06;3.85;;;3.42;;
48871;SDS011;36154;51.674;7.824;2023-06-22T00:25:35;4.97;;;3.53;;
48871;SDS011;36154;51.674;7.824;2023-06-22T00:28:01;3.65;;;3.00;;
48871;SDS011;36154;51.674;7.824;2023-06-22T00:30:27;3.92;;;3.10;;
48871;SDS011;36154;51.674;7.824;2023-06-22T00:32:52;5.70;;;4.00;;
48871;SDS011;36154;51.674;7.824;2023-06-22T00:35:18;5.03;;;3.42;;
48871;SDS011;36154;51.674;7.824;2023-06-22T00:37:44;3.53;;;2.95;;
48871;SDS011;36154;51.674;7.824;2023-06-22T00:40:09;3.25;;;3.00;;
48871;SDS011;36154;51.674;7.824;2023-06-22T00:42:39;3.50;;;3.20;;
48871;SDS011;36154;51.674;7.824;2023-06-22T00:45:05;5.45;;;4.07;;
48871;SDS011;36154;51.674;7.824;2023-06-22T00:47:31;4.22;;;3.92;;
48871;SDS011;36154;51.674;7.824;2023-06-22T00:49:57;4.30;;;3.65;;
48871;SDS011;36154;51.674;7.824;2023-06-22T00:52:22;5.63;;;3.75;;
48871;SDS011;36154;51.674;7.824;2023-06-22T00:54:51;3.83;;;3.53;;
48871;SDS011;36154;51.674;7.824;2023-06-22T00:57:17;4.03;;;3.70;;
48871;SDS011;36154;51.674;7.824;2023-06-22T00:59:44;5.95;;;3.97;;
48871;SDS011;36154;51.674;7.824;2023-06-22T01:02:10;4.63;;;3.90;;
48871;SDS011;36154;51.674;7.824;2023-06-22T01:04:38;3.55;;;3.35;;
48871;SDS011;36154;51.674;7.824;2023-06-22T01:07:09;4.05;;;3.67;;
48871;SDS011;36154;51.674;7.824;2023-06-22T01:09:49;4.88;;;4.30;;
48871;SDS011;36154;51.674;7.824;2023-06-22T01:12:21;4.90;;;4.38;;
48871;SDS011;36154;51.674;7.824;2023-06-22T01:14:50;7.50;;;4.70;;
48871;SDS011;36154;51.674;7.824;2023-06-22T01:17:23;5.05;;;4.55;;
48871;SDS011;36154;51.674;7.824;2023-06-22T01:19:50;6.28;;;4.07;;
48871;SDS011;36154;51.674;7.824;2023-06-22T01:22:21;5.45;;;3.72;;
48871;SDS011;36154;51.674;7.824;2023-06-22T01:24:52;6.63;;;4.15;;
48871;SDS011;36154;51.674;7.824;2023-06-22T01:30:10;4.90;;;4.50;;
48871;SDS011;36154;51.674;7.824;2023-06-22T01:32:38;5.22;;;4.70;;
48871;SDS011;36154;51.674;7.824;2023-06-22T01:35:06;6.95;;;4.32;;
48871;SDS011;36154;51.674;7.824;2023-06-22T01:37:33;5.82;;;4.95;;
48871;SDS011;36154;51.674;7.824;2023-06-22T01:40:00;5.25;;;4.85;;
48871;SDS011;36154;51.674;7.824;2023-06-22T01:42:28;4.97;;;4.63;;
48871;SDS011;36154;51.674;7.824;2023-06-22T01:44:54;5.22;;;4.57;;
48871;SDS011;36154;51.674;7.824;2023-06-22T01:47:21;4.78;;;4.40;;
48871;SDS011;36154;51.674;7.824;2023-06-22T01:49:47;6.03;;;4.78;;
48871;SDS011;36154;51.674;7.824;2023-06-22T01:52:14;4.65;;;4.35;;
48871;SDS011;36154;51.674;7.824;2023-06-22T01:54:40;5.55;;;4.65;;
48871;SDS011;36154;51.674;7.824;2023-06-22T01:57:05;5.82;;;5.00;;
48871;SDS011;36154;51.674;7.824;2023-06-22T02:02:06;5.10;;;4.70;;
48871;SDS011;36154;51.674;7.824;2023-06-22T02:07:05;6.95;;;4.97;;
48871;SDS011;36154;51.674;7.824;2023-06-22T02:09:37;6.88;;;4.82;;
48871;SDS011;36154;51.674;7.824;2023-06-22T02:12:05;4.35;;;4.05;;
48871;SDS011;36154;51.674;7.824;2023-06-22T02:14:33;6.35;;;4.50;;
48871;SDS011;36154;51.674;7.824;2023-06-22T02:17:00;5.45;;;4.95;;
48871;SDS011;36154;51.674;7.824;2023-06-22T02:19:26;5.53;;;5.07;;
48871;SDS011;36154;51.674;7.824;2023-06-22T02:21:52;5.30;;;4.90;;
48871;SDS011;36154;51.674;7.824;2023-06-22T02:24:17;6.22;;;5.03;;
48871;SDS011;36154;51.674;7.824;2023-06-22T02:26:43;5.45;;;4.95;;
48871;SDS011;36154;51.674;7.824;2023-06-22T02:29:10;6.50;;;5.10;;
48871;SDS011;36154;51.674;7.824;2023-06-22T02:31:35;5.30;;;4.80;;
48871;SDS011;36154;51.674;7.824;2023-06-22T02:34:01;4.88;;;4.53;;
48871;SDS011;36154;51.674;7.824;2023-06-22T02:36:26;4.68;;;4.28;;
48871;SDS011;36154;51.674;7.824;2023-06-22T02:38:52;5.13;;;4.72;;
48871;SDS011;36154;51.674;7.824;2023-06-22T02:41:19;6.10;;;5.50;;
48871;SDS011;36154;51.674;7.824;2023-06-22T02:43:45;5.28;;;4.88;;
48871;SDS011;36154;51.674;7.824;2023-06-22T02:46:11;4.82;;;4.43;;
48871;SDS011;36154;51.674;7.824;2023-06-22T02:48:38;5.28;;;4.03;;
48871;SDS011;36154;51.674;7.824;2023-06-22T02:51:03;4.60;;;4.30;;
48871;SDS011;36154;51.674;7.824;2023-06-22T02:53:28;4.57;;;4.18;;
48871;SDS011;36154;51.674;7.824;2023-06-22T02:55:55;4.65;;;4.35;;
48871;SDS011;36154;51.674;7.824;2023-06-22T02:58:20;4.72;;;3.50;;
48871;SDS011;36154;51.674;7.824;2023-06-22T03:00:46;4.60;;;4.20;;
48871;SDS011;36154;51.674;7.824;2023-06-22T03:03:11;4.80;;;4.40;;
48871;SDS011;36154;51.674;7.824;2023-06-22T03:05:36;4.05;;;3.75;;
48871;SDS011;36154;51.674;7.824;2023-06-22T03:08:02;6.28;;;5.72;;
48871;SDS011;36154;51.674;7.824;2023-06-22T03:10:27;7.43;;;5.45;;
48871;SDS011;36154;51.674;7.824;2023-06-22T03:12:52;5.45;;;5.05;;
48871;SDS011;36154;51.674;7.824;2023-06-22T03:15:18;6.15;;;5.55;;
48871;SDS011;36154;51.674;7.824;2023-06-22T03:17:43;6.22;;;5.32;;
48871;SDS011;36154;51.674;7.824;2023-06-22T03:20:09;6.28;;;5.68;;
48871;SDS011;36154;51.674;7.824;2023-06-22T03:22:37;5.15;;;4.63;;
48871;SDS011;36154;51.674;7.824;2023-06-22T03:25:03;7.40;;;5.32;;
48871;SDS011;36154;51.674;7.824;2023-06-22T03:27:34;4.78;;;4.47;;
48871;SDS011;36154;51.674;7.824;2023-06-22T03:30:00;5.22;;;4.43;;
48871;SDS011;36154;51.674;7.824;2023-06-22T03:32:25;5.82;;;5.38;;
48871;SDS011;36154;51.674;7.824;2023-06-22T03:34:52;4.90;;;4.45;;
48871;SDS011;36154;51.674;7.824;2023-06-22T03:37:24;6.53;;;5.93;;
48871;SDS011;36154;51.674;7.824;2023-06-22T03:39:50;5.97;;;5.00;;
48871;SDS011;36154;51.674;7.824;2023-06-22T03:42:15;5.20;;;4.68;;
48871;SDS011;36154;51.674;7.824;2023-06-22T03:44:40;6.93;;;5.38;;
48871;SDS011;36154;51.674;7.824;2023-06-22T03:47:06;5.63;;;5.13;;
48871;SDS011;36154;51.674;7.824;2023-06-22T03:49:32;7.68;;;5.50;;
48871;SDS011;36154;51.674;7.824;2023-06-22T03:51:59;7.15;;;5.72;;
48871;SDS011;36154;51.674;7.824;2023-06-22T03:54:25;6.13;;;5.55;;
48871;SDS011;36154;51.674;7.824;2023-06-22T03:56:51;6.05;;;5.45;;
48871;SDS011;36154;51.674;7.824;2023-06-22T03:59:16;5.65;;;4.85;;
48871;SDS011;36154;51.674;7.824;2023-06-22T04:01:41;5.18;;;4.72;;
48871;SDS011;36154;51.674;7.824;2023-06-22T04:04:06;6.88;;;6.15;;
48871;SDS011;36154;51.674;7.824;2023-06-22T04:06:32;8.07;;;5.82;;
48871;SDS011;36154;51.674;7.824;2023-06-22T04:08:58;5.95;;;5.45;;
48871;SDS011;36154;51.674;7.824;2023-06-22T04:11:25;7.05;;;6.18;;
48871;SDS011;36154;51.674;7.824;2023-06-22T04:13:51;6.40;;;5.80;;
48871;SDS011;36154;51.674;7.824;2023-06-22T04:16:16;5.70;;;5.18;;
48871;SDS011;36154;51.674;7.824;2023-06-22T04:18:41;5.82;;;5.30;;
48871;SDS011;36154;51.674;7.824;2023-06-22T04:21:06;5.90;;;5.38;;
48871;SDS011;36154;51.674;7.824;2023-06-22T04:23:32;5.10;;;4.68;;
48871;SDS011;36154;51.674;7.824;2023-06-22T04:25:57;5.63;;;5.10;;
48871;SDS011;36154;51.674;7.824;2023-06-22T04:28:24;7.95;;;5.03;;
48871;SDS011;36154;51.674;7.824;2023-06-22T04:30:49;5.97;;;5.47;;
48871;SDS011;36154;51.674;7.824;2023-06-22T04:33:16;6.25;;;5.65;;
48871;SDS011;36154;51.674;7.824;2023-06-22T04:35:44;7.65;;;6.50;;
48871;SDS011;36154;51.674;7.824;2023-06-22T04:38:11;7.40;;;5.72;;
48871;SDS011;36154;51.674;7.824;2023-06-22T04:40:38;7.78;;;7.15;;
48871;SDS011;36154;51.674;7.824;2023-06-22T04:43:04;6.93;;;5.80;;
48871;SDS011;36154;51.674;7.824;2023-06-22T04:45:31;10.00;;;7.68;;
48871;SDS011;36154;51.674;7.824;2023-06-22T04:47:56;9.98;;;8.23;;
48871;SDS011;36154;51.674;7.824;2023-06-22T04:50:22;12.43;;;8.25;;
48871;SDS011;36154;51.674;7.824;2023-06-22T04:52:48;11.98;;;8.95;;
48871;SDS011;36154;51.674;7.824;2023-06-22T04:55:14;13.07;;;9.30;;
48871;SDS011;36154;51.674;7.824;2023-06-22T04:57:46;8.60;;;7.80;;
48871;SDS011;36154;51.674;7.824;2023-06-22T05:00:19;9.20;;;8.25;;
48871;SDS011;36154;51.674;7.824;2023-06-22T05:02:47;12.13;;;9.52;;
48871;SDS011;36154;51.674;7.824;2023-06-22T05:05:12;9.93;;;8.00;;
48871;SDS011;36154;51.674;7.824;2023-06-22T05:07:45;8.85;;;7.90;;
48871;SDS011;36154;51.674;7.824;2023-06-22T05:10:13;8.38;;;7.57;;
48871;SDS011;36154;51.674;7.824;2023-06-22T05:12:39;8.85;;;7.95;;
48871;SDS011;36154;51.674;7.824;2023-06-22T05:15:06;8.48;;;7.68;;
48871;SDS011;36154;51.674;7.824;2023-06-22T05:17:32;10.85;;;8.38;;
48871;SDS011;36154;51.674;7.824;2023-06-22T05:19:58;9.07;;;7.82;;
48871;SDS011;36154;51.674;7.824;2023-06-22T05:22:24;8.98;;;8.05;;
48871;SDS011;36154;51.674;7.824;2023-06-22T05:24:49;9.45;;;7.95;;
48871;SDS011;36154;51.674;7.824;2023-06-22T05:27:14;9.38;;;8.43;;
48871;SDS011;36154;51.674;7.824;2023-06-22T05:29:40;9.25;;;7.75;;
48871;SDS011;36154;51.674;7.824;2023-06-22T05:32:05;11.05;;;8.40;;
48871;SDS011;36154;51.674;7.824;2023-06-22T05:34:31;11.25;;;8.48;;
48871;SDS011;36154;51.674;7.824;2023-06-22T05:36:57;11.55;;;9.52;;
48871;SDS011;36154;51.674;7.824;2023-06-22T05:39:24;9.88;;;8.88;;
48871;SDS011;36154;51.674;7.824;2023-06-22T05:41:51;9.38;;;8.50;;
48871;SDS011;36154;51.674;7.824;2023-06-22T05:44:16;8.50;;;7.57;;
48871;SDS011;36154;51.674;7.824;2023-06-22T05:46:44;18.75;;;8.18;;
48871;SDS011;36154;51.674;7.824;2023-06-22T05:49:11;12.52;;;8.18;;
48871;SDS011;36154;51.674;7.824;2023-06-22T05:51:37;9.02;;;8.13;;
48871;SDS011;36154;51.674;7.824;2023-06-22T05:54:02;11.13;;;8.07;;
48871;SDS011;36154;51.674;7.824;2023-06-22T05:56:27;7.97;;;7.28;;
48871;SDS011;36154;51.674;7.824;2023-06-22T05:58:53;7.88;;;7.03;;
48871;SDS011;36154;51.674;7.824;2023-06-22T06:01:18;8.10;;;7.32;;
48871;SDS011;36154;51.674;7.824;2023-06-22T06:03:44;9.30;;;6.88;;
48871;SDS011;36154;51.674;7.824;2023-06-22T06:06:09;7.63;;;6.90;;
48871;SDS011;36154;51.674;7.824;2023-06-22T06:08:36;6.93;;;6.20;;
48871;SDS011;36154;51.674;7.824;2023-06-22T06:11:02;8.40;;;6.72;;
48871;SDS011;36154;51.674;7.824;2023-06-22T06:13:27;7.30;;;6.60;;
48871;SDS011;36154;51.674;7.824;2023-06-22T06:15:52;7.45;;;6.60;;
48871;SDS011;36154;51.674;7.824;2023-06-22T06:18:20;9.13;;;7.68;;
48871;SDS011;36154;51.674;7.824;2023-06-22T06:20:45;10.13;;;6.32;;
48871;SDS011;36154;51.674;7.824;2023-06-22T06:23:10;8.23;;;7.43;;
48871;SDS011;36154;51.674;7.824;2023-06-22T06:25:36;8.15;;;6.82;;
48871;SDS011;36154;51.674;7.824;2023-06-22T06:28:01;7.53;;;6.63;;
48871;SDS011;36154;51.674;7.824;2023-06-22T06:30:26;11.07;;;7.55;;
48871;SDS011;36154;51.674;7.824;2023-06-22T06:32:52;9.25;;;8.00;;
48871;SDS011;36154;51.674;7.824;2023-06-22T06:35:17;8.50;;;7.65;;
48871;SDS011;36154;51.674;7.824;2023-06-22T06:37:43;10.00;;;7.88;;
48871;SDS011;36154;51.674;7.824;2023-06-22T06:40:11;7.07;;;6.38;;
48871;SDS011;36154;51.674;7.824;2023-06-22T06:42:38;9.45;;;7.20;;
48871;SDS011;36154;51.674;7.824;2023-06-22T06:45:06;7.53;;;6.60;;
48871;SDS011;36154;51.674;7.824;2023-06-22T06:47:31;9.07;;;6.82;;
48871;SDS011;36154;51.674;7.824;2023-06-22T06:49:57;9.27;;;7.03;;
48871;SDS011;36154;51.674;7.824;2023-06-22T06:52:22;15.05;;;7.07;;
48871;SDS011;36154;51.674;7.824;2023-06-22T06:54:48;10.00;;;7.90;;
48871;SDS011;36154;51.674;7.824;2023-06-22T06:57:13;8.82;;;7.38;;
48871;SDS011;36154;51.674;7.824;2023-06-22T06:59:40;8.05;;;7.25;;
48871;SDS011;36154;51.674;7.824;2023-06-22T07:02:05;9.82;;;7.80;;
48871;SDS011;36154;51.674;7.824;2023-06-22T07:04:30;10.32;;;8.52;;
48871;SDS011;36154;51.674;7.824;2023-06-22T07:06:55;8.82;;;8.02;;
48871;SDS011;36154;51.674;7.824;2023-06-22T07:09:21;8.63;;;7.78;;
48871;SDS011;36154;51.674;7.824;2023-06-22T07:11:46;10.43;;;8.65;;
48871;SDS011;36154;51.674;7.824;2023-06-22T07:14:11;10.60;;;9.07;;
48871;SDS011;36154;51.674;7.824;2023-06-22T07:16:37;9.35;;;8.50;;
48871;SDS011;36154;51.674;7.824;2023-06-22T07:19:04;11.20;;;8.65;;
48871;SDS011;36154;51.674;7.824;2023-06-22T07:21:29;10.55;;;9.57;;
48871;SDS011;36154;51.674;7.824;2023-06-22T07:23:55;8.95;;;8.10;;
48871;SDS011;36154;51.674;7.824;2023-06-22T07:26:21;11.15;;;8.25;;
48871;SDS011;36154;51.674;7.824;2023-06-22T07:28:46;9.57;;;7.82;;
48871;SDS011;36154;51.674;7.824;2023-06-22T07:31:12;10.55;;;8.40;;
48871;SDS011;36154;51.674;7.824;2023-06-22T07:33:37;10.20;;;8.75;;
48871;SDS011;36154;51.674;7.824;2023-06-22T07:36:02;8.95;;;8.05;;
48871;SDS011;36154;51.674;7.824;2023-06-22T07:38:32;12.32;;;8.43;;
48871;SDS011;36154;51.674;7.824;2023-06-22T07:40:57;10.38;;;8.45;;
48871;SDS011;36154;51.674;7.824;2023-06-22T07:43:23;10.98;;;7.88;;
48871;SDS011;36154;51.674;7.824;2023-06-22T07:45:49;9.48;;;8.43;;
48871;SDS011;36154;51.674;7.824;2023-06-22T07:48:17;11.32;;;10.13;;
48871;SDS011;36154;51.674;7.824;2023-06-22T07:50:44;9.05;;;8.20;;
48871;SDS011;36154;51.674;7.824;2023-06-22T07:53:10;8.65;;;7.75;;
48871;SDS011;36154;51.674;7.824;2023-06-22T07:55:35;10.13;;;8.15;;
48871;SDS011;36154;51.674;7.824;2023-06-22T07:58:00;9.07;;;7.75;;
48871;SDS011;36154;51.674;7.824;2023-06-22T08:00:25;10.63;;;8.95;;
48871;SDS011;36154;51.674;7.824;2023-06-22T08:02:51;11.90;;;8.38;;
48871;SDS011;36154;51.674;7.824;2023-06-22T08:05:16;16.08;;;8.43;;
48871;SDS011;36154;51.674;7.824;2023-06-22T08:07:42;11.43;;;10.00;;
48871;SDS011;36154;51.674;7.824;2023-06-22T08:10:12;11.05;;;9.93;;
48871;SDS011;36154;51.674;7.824;2023-06-22T08:12:38;13.65;;;12.25;;
48871;SDS011;36154;51.674;7.824;2023-06-22T08:15:04;14.10;;;12.52;;
48871;SDS011;36154;51.674;7.824;2023-06-22T08:17:30;26.02;;;19.80;;
48871;SDS011;36154;51.674;7.824;2023-06-22T08:19:56;23.00;;;14.98;;
48871;SDS011;36154;51.674;7.824;2023-06-22T08:22:21;19.05;;;13.80;;
48871;SDS011;36154;51.674;7.824;2023-06-22T08:24:47;14.35;;;12.85;;
48871;SDS011;36154;51.674;7.824;2023-06-22T08:27:12;14.15;;;12.80;;
48871;SDS011;36154;51.674;7.824;2023-06-22T08:29:38;13.27;;;11.88;;
48871;SDS011;36154;51.674;7.824;2023-06-22T08:32:04;14.65;;;11.38;;
48871;SDS011;36154;51.674;7.824;2023-06-22T08:34:30;13.95;;;10.80;;
48871;SDS011;36154;51.674;7.824;2023-06-22T08:36:55;12.65;;;11.07;;
48871;SDS011;36154;51.674;7.824;2023-06-22T08:39:21;11.60;;;10.27;;
48871;SDS011;36154;51.674;7.824;2023-06-22T08:41:47;13.07;;;11.40;;
48871;SDS011;36154;51.674;7.824;2023-06-22T08:44:13;12.15;;;10.95;;
48871;SDS011;36154;51.674;7.824;2023-06-22T08:46:38;13.25;;;11.18;;
48871;SDS011;36154;51.674;7.824;2023-06-22T08:49:05;14.55;;;11.02;;
48871;SDS011;36154;51.674;7.824;2023-06-22T08:51:31;13.77;;;10.75;;
48871;SDS011;36154;51.674;7.824;2023-06-22T08:53:56;12.98;;;10.27;;
48871;SDS011;36154;51.674;7.824;2023-06-22T08:56:22;16.33;;;10.45;;
48871;SDS011;36154;51.674;7.824;2023-06-22T08:58:47;10.65;;;9.63;;
48871;SDS011;36154;51.674;7.824;2023-06-22T09:01:12;9.88;;;8.80;;
48871;SDS011;36154;51.674;7.824;2023-06-22T09:03:40;11.30;;;9.43;;
48871;SDS011;36154;51.674;7.824;2023-06-22T09:06:05;10.00;;;8.90;;
48871;SDS011;36154;51.674;7.824;2023-06-22T09:08:31;10.93;;;9.45;;
48871;SDS011;36154;51.674;7.824;2023-06-22T09:10:57;9.57;;;8.77;;
48871;SDS011;36154;51.674;7.824;2023-06-22T09:13:22;14.20;;;9.43;;
48871;SDS011;36154;51.674;7.824;2023-06-22T09:15:47;10.57;;;9.45;;
48871;SDS011;36154;51.674;7.824;2023-06-22T09:18:13;9.40;;;8.40;;
48871;SDS011;36154;51.674;7.824;2023-06-22T09:20:38;9.52;;;8.15;;
48871;SDS011;36154;51.674;7.824;2023-06-22T09:23:04;8.52;;;7.85;;
48871;SDS011;36154;51.674;7.824;2023-06-22T09:25:29;8.30;;;7.35;;
48871;SDS011;36154;51.674;7.824;2023-06-22T09:27:54;7.57;;;6.80;;
48871;SDS011;36154;51.674;7.824;2023-06-22T09:30:20;7.15;;;6.55;;
48871;SDS011;36154;51.674;7.824;2023-06-22T09:32:47;7.63;;;6.88;;
48871;SDS011;36154;51.674;7.824;2023-06-22T09:35:13;8.10;;;7.35;;
48871;SDS011;36154;51.674;7.824;2023-06-22T09:37:38;7.72;;;7.00;;
48871;SDS011;36154;51.674;7.824;2023-06-22T09:40:05;11.82;;;7.63;;
48871;SDS011;36154;51.674;7.824;2023-06-22T09:42:34;8.30;;;7.50;;
48871;SDS011;36154;51.674;7.824;2023-06-22T09:45:00;10.20;;;7.43;;
48871;SDS011;36154;51.674;7.824;2023-06-22T09:47:26;9.75;;;7.65;;
48871;SDS011;36154;51.674;7.824;2023-06-22T09:49:52;10.15;;;9.20;;
48871;SDS011;36154;51.674;7.824;2023-06-22T09:52:18;13.27;;;9.55;;
48871;SDS011;36154;51.674;7.824;2023-06-22T09:54:43;9.45;;;8.50;;
48871;SDS011;36154;51.674;7.824;2023-06-22T09:57:08;12.18;;;10.13;;
48871;SDS011;36154;51.674;7.824;2023-06-22T09:59:34;14.13;;;10.80;;
48871;SDS011;36154;51.674;7.824;2023-06-22T10:01:59;11.82;;;10.63;;
48871;SDS011;36154;51.674;7.824;2023-06-22T10:04:24;8.93;;;8.00;;
48871;SDS011;36154;51.674;7.824;2023-06-22T10:06:50;10.93;;;9.00;;
48871;SDS011;36154;51.674;7.824;2023-06-22T10:09:15;10.25;;;9.25;;
48871;SDS011;36154;51.674;7.824;2023-06-22T10:11:41;10.25;;;8.93;;
48871;SDS011;36154;51.674;7.824;2023-06-22T10:14:06;9.00;;;8.23;;
48871;SDS011;36154;51.674;7.824;2023-06-22T10:16:31;8.68;;;7.80;;
48871;SDS011;36154;51.674;7.824;2023-06-22T10:18:57;7.53;;;6.88;;
48871;SDS011;36154;51.674;7.824;2023-06-22T10:21:22;6.78;;;6.25;;
48871;SDS011;36154;51.674;7.824;2023-06-22T10:23:48;7.18;;;6.50;;
48871;SDS011;36154;51.674;7.824;2023-06-22T10:26:13;6.78;;;6.28;;
48871;SDS011;36154;51.674;7.824;2023-06-22T10:28:38;6.60;;;6.00;;
48871;SDS011;36154;51.674;7.824;2023-06-22T10:31:03;7.15;;;5.90;;
48871;SDS011;36154;51.674;7.824;2023-06-22T10:33:29;8.32;;;6.03;;
48871;SDS011;36154;51.674;7.824;2023-06-22T10:35:54;6.28;;;5.78;;
48871;SDS011;36154;51.674;7.824;2023-06-22T10:38:20;6.80;;;6.10;;
48871;SDS011;36154;51.674;7.824;2023-06-22T10:40:46;6.13;;;5.60;;
48871;SDS011;36154;51.674;7.824;2023-06-22T10:43:11;7.43;;;6.20;;
48871;SDS011;36154;51.674;7.824;2023-06-22T10:45:36;7.63;;;5.65;;
48871;SDS011;36154;51.674;7.824;2023-06-22T10:48:02;7.50;;;5.72;;
48871;SDS011;36154;51.674;7.824;2023-06-22T10:50:27;5.55;;;5.10;;
48871;SDS011;36154;51.674;7.824;2023-06-22T10:52:53;10.10;;;4.97;;
48871;SDS011;36154;51.674;7.824;2023-06-22T10:55:19;6.30;;;4.10;;
48871;SDS011;36154;51.674;7.824;2023-06-22T10:57:44;4.80;;;4.50;;
48871;SDS011;36154;51.674;7.824;2023-06-22T11:00:12;6.88;;;4.15;;
48871;SDS011;36154;51.674;7.824;2023-06-22T11:02:38;4.93;;;4.53;;
48871;SDS011;36154;51.674;7.824;2023-06-22T11:05:04;4.78;;;4.38;;
48871;SDS011;36154;51.674;7.824;2023-06-22T11:07:29;4.57;;;4.28;;
48871;SDS011;36154;51.674;7.824;2023-06-22T11:09:55;4.63;;;4.32;;
48871;SDS011;36154;51.674;7.824;2023-06-22T11:12:20;4.97;;;4.55;;
48871;SDS011;36154;51.674;7.824;2023-06-22T11:14:46;5.22;;;4.80;;
48871;SDS011;36154;51.674;7.824;2023-06-22T11:17:11;4.47;;;4.18;;
48871;SDS011;36154;51.674;7.824;2023-06-22T11:19:36;5.00;;;4.60;;
48871;SDS011;36154;51.674;7.824;2023-06-22T11:22:02;4.82;;;4.53;;
48871;SDS011;36154;51.674;7.824;2023-06-22T11:24:27;4.47;;;4.07;;
48871;SDS011;36154;51.674;7.824;2023-06-22T11:26:52;4.60;;;4.30;;
48871;SDS011;36154;51.674;7.824;2023-06-22T11:29:18;4.40;;;4.10;;
48871;SDS011;36154;51.674;7.824;2023-06-22T11:31:43;4.60;;;4.30;;
48871;SDS011;36154;51.674;7.824;2023-06-22T11:34:08;4.88;;;4.43;;
48871;SDS011;36154;51.674;7.824;2023-06-22T11:36:34;4.68;;;4.38;;
48871;SDS011;36154;51.674;7.824;2023-06-22T11:39:00;4.18;;;3.92;;
48871;SDS011;36154;51.674;7.824;2023-06-22T11:41:26;3.90;;;3.70;;
48871;SDS011;36154;51.674;7.824;2023-06-22T11:43:51;4.25;;;4.05;;
48871;SDS011;36154;51.674;7.824;2023-06-22T11:46:16;3.97;;;3.78;;
48871;SDS011;36154;51.674;7.824;2023-06-22T11:48:41;4.35;;;4.15;;
48871;SDS011;36154;51.674;7.824;2023-06-22T11:51:07;4.07;;;3.83;;
48871;SDS011;36154;51.674;7.824;2023-06-22T11:53:33;4.00;;;3.80;;
48871;SDS011;36154;51.674;7.824;2023-06-22T11:55:59;4.35;;;3.92;;
48871;SDS011;36154;51.674;7.824;2023-06-22T11:58:26;4.00;;;3.65;;
48871;SDS011;36154;51.674;7.824;2023-06-22T12:00:51;4.20;;;3.90;;
48871;SDS011;36154;51.674;7.824;2023-06-22T12:03:17;4.38;;;4.10;;
48871;SDS011;36154;51.674;7.824;2023-06-22T12:05:42;4.43;;;4.07;;
48871;SDS011;36154;51.674;7.824;2023-06-22T12:08:08;4.47;;;4.05;;
48871;SDS011;36154;51.674;7.824;2023-06-22T12:10:34;4.22;;;3.83;;
48871;SDS011;36154;51.674;7.824;2023-06-22T12:12:59;4.88;;;4.18;;
48871;SDS011;36154;51.674;7.824;2023-06-22T12:15:25;4.53;;;4.22;;
48871;SDS011;36154;51.674;7.824;2023-06-22T12:17:51;5.30;;;3.55;;
48871;SDS011;36154;51.674;7.824;2023-06-22T12:20:16;4.20;;;4.00;;
48871;SDS011;36154;51.674;7.824;2023-06-22T12:22:42;6.18;;;5.07;;
48871;SDS011;36154;51.674;7.824;2023-06-22T12:25:08;5.18;;;4.82;;
48871;SDS011;36154;51.674;7.824;2023-06-22T12:27:34;5.60;;;4.95;;
48871;SDS011;36154;51.674;7.824;2023-06-22T12:30:00;4.75;;;4.47;;
48871;SDS011;36154;51.674;7.824;2023-06-22T12:32:25;5.07;;;4.78;;
48871;SDS011;36154;51.674;7.824;2023-06-22T12:34:51;5.80;;;4.40;;
48871;SDS011;36154;51.674;7.824;2023-06-22T12:37:16;4.85;;;4.40;;
48871;SDS011;36154;51.674;7.824;2023-06-22T12:39:42;5.35;;;4.95;;
48871;SDS011;36154;51.674;7.824;2023-06-22T12:42:07;5.70;;;5.28;;
48871;SDS011;36154;51.674;7.824;2023-06-22T12:44:34;6.65;;;5.22;;
48871;SDS011;36154;51.674;7.824;2023-06-22T12:47:06;7.03;;;6.32;;
48871;SDS011;36154;51.674;7.824;2023-06-22T12:49:31;8.15;;;5.82;;
48871;SDS011;36154;51.674;7.824;2023-06-22T12:51:57;6.60;;;5.90;;
48871;SDS011;36154;51.674;7.824;2023-06-22T12:54:22;10.73;;;6.25;;
48871;SDS011;36154;51.674;7.824;2023-06-22T12:56:47;6.75;;;6.15;;
48871;SDS011;36154;51.674;7.824;2023-06-22T12:59:14;8.40;;;6.53;;
48871;SDS011;36154;51.674;7.824;2023-06-22T13:01:42;7.68;;;6.97;;
48871;SDS011;36154;51.674;7.824;2023-06-22T13:04:08;6.85;;;6.25;;
48871;SDS011;36154;51.674;7.824;2023-06-22T13:06:36;7.05;;;6.45;;
48871;SDS011;36154;51.674;7.824;2023-06-22T13:09:01;9.25;;;7.30;;
48871;SDS011;36154;51.674;7.824;2023-06-22T13:11:26;7.82;;;6.07;;
48871;SDS011;36154;51.674;7.824;2023-06-22T13:13:52;10.50;;;6.78;;
48871;SDS011;36154;51.674;7.824;2023-06-22T13:16:17;12.43;;;9.32;;
48871;SDS011;36154;51.674;7.824;2023-06-22T13:18:42;10.57;;;9.27;;
48871;SDS011;36154;51.674;7.824;2023-06-22T13:21:07;9.93;;;7.90;;
48871;SDS011;36154;51.674;7.824;2023-06-22T13:23:33;8.80;;;7.93;;
48871;SDS011;36154;51.674;7.824;2023-06-22T13:25:59;11.40;;;8.55;;
48871;SDS011;36154;51.674;7.824;2023-06-22T13:28:25;8.65;;;7.88;;
48871;SDS011;36154;51.674;7.824;2023-06-22T13:30:50;8.85;;;7.93;;
48871;SDS011;36154;51.674;7.824;2023-06-22T13:33:15;12.70;;;7.50;;
48871;SDS011;36154;51.674;7.824;2023-06-22T13:35:41;10.23;;;7.75;;
48871;SDS011;36154;51.674;7.824;2023-06-22T13:38:09;7.35;;;6.82;;
48871;SDS011;36154;51.674;7.824;2023-06-22T13:40:36;8.60;;;6.85;;
48871;SDS011;36154;51.674;7.824;2023-06-22T13:43:03;10.32;;;9.20;;
48871;SDS011;36154;51.674;7.824;2023-06-22T13:45:28;13.43;;;11.15;;
48871;SDS011;36154;51.674;7.824;2023-06-22T13:47:54;12.00;;;10.60;;
48871;SDS011;36154;51.674;7.824;2023-06-22T13:50:19;11.90;;;10.77;;
48871;SDS011;36154;51.674;7.824;2023-06-22T13:52:44;11.70;;;10.57;;
48871;SDS011;36154;51.674;7.824;2023-06-22T13:55:09;15.98;;;11.82;;
48871;SDS011;36154;51.674;7.824;2023-06-22T13:57:35;11.48;;;10.32;;
48871;SDS011;36154;51.674;7.824;2023-06-22T14:00:02;11.07;;;10.13;;
48871;SDS011;36154;51.674;7.824;2023-06-22T14:02:30;12.40;;;10.95;;
48871;SDS011;36154;51.674;7.824;2023-06-22T14:04:55;11.43;;;10.23;;
48871;SDS011;36154;51.674;7.824;2023-06-22T14:07:21;10.88;;;9.90;;
48871;SDS011;36154;51.674;7.824;2023-06-22T14:09:46;11.27;;;10.07;;
48871;SDS011;36154;51.674;7.824;2023-06-22T14:12:12;14.77;;;11.05;;
48871;SDS011;36154;51.674;7.824;2023-06-22T14:14:37;11.10;;;9.93;;
48871;SDS011;36154;51.674;7.824;2023-06-22T14:17:03;10.77;;;9.75;;
48871;SDS011;36154;51.674;7.824;2023-06-22T14:19:29;10.98;;;9.98;;
48871;SDS011;36154;51.674;7.824;2023-06-22T14:21:54;14.35;;;13.02;;
48871;SDS011;36154;51.674;7.824;2023-06-22T14:24:20;15.15;;;13.65;;
48871;SDS011;36154;51.674;7.824;2023-06-22T14:26:45;12.45;;;11.25;;
48871;SDS011;36154;51.674;7.824;2023-06-22T14:29:12;11.18;;;10.18;;
48871;SDS011;36154;51.674;7.824;2023-06-22T14:31:38;19.30;;;12.93;;
48871;SDS011;36154;51.674;7.824;2023-06-22T14:34:03;15.98;;;13.65;;
48871;SDS011;36154;51.674;7.824;2023-06-22T14:36:30;14.88;;;13.27;;
48871;SDS011;36154;51.674;7.824;2023-06-22T14:38:55;15.23;;;13.82;;
48871;SDS011;36154;51.674;7.824;2023-06-22T14:41:21;14.20;;;12.80;;
48871;SDS011;36154;51.674;7.824;2023-06-22T14:43:47;13.73;;;11.98;;